sensor_id;sensor_type;location;lat;lon;timestamp;pressure;altitude;pressure_sealevel;temperature;humidity
77823;BME280;67013;49.730;17.292;2023-05-07T00:00:11;98473.12;;;14.45;65.13
77823;BME280;67013;49.730;17.292;2023-05-07T00:02:43;98474.60;;;14.46;65.51
77823;BME280;67013;49.730;17.292;2023-05-07T00:05:13;98480.60;;;14.48;65.73
77823;BME280;67013;49.730;17.292;2023-05-07T00:07:43;98482.70;;;14.50;65.90
77823;BME280;67013;49.730;17.292;2023-05-07T00:10:12;98482.15;;;14.50;66.03
77823;BME280;67013;49.730;17.292;2023-05-07T00:12:42;98480.80;;;14.50;66.12
77823;BME280;67013;49.730;17.292;2023-05-07T00:15:12;98481.95;;;14.48;66.12
77823;BME280;67013;49.730;17.292;2023-05-07T00:17:41;98482.06;;;14.47;66.21
77823;BME280;67013;49.730;17.292;2023-05-07T00:20:12;98483.67;;;14.44;66.08
77823;BME280;67013;49.730;17.292;2023-05-07T00:22:41;98486.33;;;14.44;65.93
77823;BME280;67013;49.730;17.292;2023-05-07T00:25:11;98485.78;;;14.46;66.03
77823;BME280;67013;49.730;17.292;2023-05-07T00:27:40;98483.89;;;14.48;65.74
77823;BME280;67013;49.730;17.292;2023-05-07T00:30:11;98481.48;;;14.50;65.32
77823;BME280;67013;49.730;17.292;2023-05-07T00:32:41;98477.34;;;14.49;65.03
77823;BME280;67013;49.730;17.292;2023-05-07T00:35:10;98474.34;;;14.45;64.63
77823;BME280;67013;49.730;17.292;2023-05-07T00:37:40;98473.32;;;14.41;64.32
77823;BME280;67013;49.730;17.292;2023-05-07T00:40:10;98476.23;;;14.35;64.30
77823;BME280;67013;49.730;17.292;2023-05-07T00:42:40;98480.89;;;14.30;64.47
77823;BME280;67013;49.730;17.292;2023-05-07T00:45:10;98482.39;;;14.21;64.27
77823;BME280;67013;49.730;17.292;2023-05-07T00:47:40;98478.39;;;14.08;64.55
77823;BME280;67013;49.730;17.292;2023-05-07T00:50:10;98472.06;;;13.98;64.84
77823;BME280;67013;49.730;17.292;2023-05-07T00:52:40;98473.77;;;13.89;64.94
77823;BME280;67013;49.730;17.292;2023-05-07T00:55:10;98474.00;;;13.82;65.21
77823;BME280;67013;49.730;17.292;2023-05-07T00:57:43;98467.11;;;13.77;65.33
77823;BME280;67013;49.730;17.292;2023-05-07T01:00:14;98466.58;;;13.75;65.38
77823;BME280;67013;49.730;17.292;2023-05-07T01:02:43;98470.63;;;13.74;65.51
77823;BME280;67013;49.730;17.292;2023-05-07T01:05:16;98470.40;;;13.73;65.55
77823;BME280;67013;49.730;17.292;2023-05-07T01:07:47;98467.91;;;13.69;65.64
77823;BME280;67013;49.730;17.292;2023-05-07T01:10:17;98470.41;;;13.65;65.68
77823;BME280;67013;49.730;17.292;2023-05-07T01:12:48;98472.42;;;13.57;65.86
77823;BME280;67013;49.730;17.292;2023-05-07T01:15:19;98469.30;;;13.49;65.96
77823;BME280;67013;49.730;17.292;2023-05-07T01:17:48;98469.94;;;13.41;66.20
77823;BME280;67013;49.730;17.292;2023-05-07T01:20:19;98468.07;;;13.34;66.37
77823;BME280;67013;49.730;17.292;2023-05-07T01:22:49;98470.58;;;13.29;66.51
77823;BME280;67013;49.730;17.292;2023-05-07T01:25:19;98466.75;;;13.25;66.39
77823;BME280;67013;49.730;17.292;2023-05-07T01:27:48;98469.45;;;13.26;66.57
77823;BME280;67013;49.730;17.292;2023-05-07T01:30:18;98468.93;;;13.28;66.43
77823;BME280;67013;49.730;17.292;2023-05-07T01:32:53;98466.70;;;13.25;66.52
77823;BME280;67013;49.730;17.292;2023-05-07T01:35:29;98468.10;;;13.21;66.48
77823;BME280;67013;49.730;17.292;2023-05-07T01:37:59;98467.45;;;13.17;66.62
77823;BME280;67013;49.730;17.292;2023-05-07T01:40:30;98469.85;;;13.12;66.62
77823;BME280;67013;49.730;17.292;2023-05-07T01:43:00;98469.55;;;13.10;66.95
77823;BME280;67013;49.730;17.292;2023-05-07T01:45:31;98470.13;;;13.05;66.69
77823;BME280;67013;49.730;17.292;2023-05-07T01:48:01;98473.42;;;12.98;66.70
77823;BME280;67013;49.730;17.292;2023-05-07T01:50:32;98469.95;;;12.94;66.72
77823;BME280;67013;49.730;17.292;2023-05-07T01:53:02;98470.53;;;12.93;66.54
77823;BME280;67013;49.730;17.292;2023-05-07T01:55:32;98469.80;;;12.94;66.65
77823;BME280;67013;49.730;17.292;2023-05-07T01:58:01;98469.36;;;12.92;66.60
77823;BME280;67013;49.730;17.292;2023-05-07T02:00:31;98470.08;;;12.90;66.60
77823;BME280;67013;49.730;17.292;2023-05-07T02:03:00;98471.11;;;12.86;66.68
77823;BME280;67013;49.730;17.292;2023-05-07T02:05:30;98469.36;;;12.80;66.94
77823;BME280;67013;49.730;17.292;2023-05-07T02:07:59;98474.04;;;12.76;66.85
77823;BME280;67013;49.730;17.292;2023-05-07T02:10:29;98478.65;;;12.73;67.07
77823;BME280;67013;49.730;17.292;2023-05-07T02:12:58;98477.20;;;12.69;67.21
77823;BME280;67013;49.730;17.292;2023-05-07T02:15:30;98481.41;;;12.68;67.30
77823;BME280;67013;49.730;17.292;2023-05-07T02:18:03;98477.36;;;12.69;67.37
77823;BME280;67013;49.730;17.292;2023-05-07T02:20:34;98473.59;;;12.68;67.45
77823;BME280;67013;49.730;17.292;2023-05-07T02:23:04;98472.89;;;12.68;67.63
77823;BME280;67013;49.730;17.292;2023-05-07T02:25:33;98473.36;;;12.64;67.66
77823;BME280;67013;49.730;17.292;2023-05-07T02:28:03;98477.11;;;12.59;67.97
77823;BME280;67013;49.730;17.292;2023-05-07T02:30:32;98477.36;;;12.51;68.34
77823;BME280;67013;49.730;17.292;2023-05-07T02:33:02;98479.27;;;12.46;68.20
77823;BME280;67013;49.730;17.292;2023-05-07T02:35:31;98481.48;;;12.44;68.24
77823;BME280;67013;49.730;17.292;2023-05-07T02:38:01;98483.63;;;12.45;68.22
77823;BME280;67013;49.730;17.292;2023-05-07T02:40:30;98487.73;;;12.48;68.24
77823;BME280;67013;49.730;17.292;2023-05-07T02:43:01;98490.69;;;12.51;68.08
77823;BME280;67013;49.730;17.292;2023-05-07T02:45:31;98496.11;;;12.53;68.11
77823;BME280;67013;49.730;17.292;2023-05-07T02:48:00;98500.54;;;12.54;68.03
77823;BME280;67013;49.730;17.292;2023-05-07T02:50:30;98499.09;;;12.55;67.83
77823;BME280;67013;49.730;17.292;2023-05-07T02:53:00;98502.03;;;12.53;67.64
77823;BME280;67013;49.730;17.292;2023-05-07T02:55:30;98504.91;;;12.52;67.70
77823;BME280;67013;49.730;17.292;2023-05-07T02:57:59;98504.00;;;12.50;67.55
77823;BME280;67013;49.730;17.292;2023-05-07T03:00:29;98501.53;;;12.48;67.52
77823;BME280;67013;49.730;17.292;2023-05-07T03:02:58;98501.30;;;12.47;67.53
77823;BME280;67013;49.730;17.292;2023-05-07T03:05:28;98504.54;;;12.46;67.55
77823;BME280;67013;49.730;17.292;2023-05-07T03:07:57;98506.56;;;12.47;67.35
77823;BME280;67013;49.730;17.292;2023-05-07T03:10:27;98506.34;;;12.45;67.17
77823;BME280;67013;49.730;17.292;2023-05-07T03:12:56;98505.27;;;12.43;67.31
77823;BME280;67013;49.730;17.292;2023-05-07T03:15:26;98504.13;;;12.42;67.22
77823;BME280;67013;49.730;17.292;2023-05-07T03:17:55;98505.52;;;12.42;66.80
77823;BME280;67013;49.730;17.292;2023-05-07T03:20:25;98501.72;;;12.39;67.08
77823;BME280;67013;49.730;17.292;2023-05-07T03:22:54;98505.58;;;12.34;66.85
77823;BME280;67013;49.730;17.292;2023-05-07T03:25:24;98504.70;;;12.30;66.79
77823;BME280;67013;49.730;17.292;2023-05-07T03:27:54;98510.04;;;12.24;66.77
77823;BME280;67013;49.730;17.292;2023-05-07T03:30:23;98507.69;;;12.17;66.61
77823;BME280;67013;49.730;17.292;2023-05-07T03:32:53;98511.70;;;12.10;66.77
77823;BME280;67013;49.730;17.292;2023-05-07T03:35:22;98510.95;;;12.06;66.88
77823;BME280;67013;49.730;17.292;2023-05-07T03:37:52;98516.51;;;12.04;66.65
77823;BME280;67013;49.730;17.292;2023-05-07T03:40:21;98514.57;;;12.02;66.67
77823;BME280;67013;49.730;17.292;2023-05-07T03:42:51;98513.03;;;12.02;66.63
77823;BME280;67013;49.730;17.292;2023-05-07T03:45:20;98518.51;;;12.01;66.49
77823;BME280;67013;49.730;17.292;2023-05-07T03:47:50;98521.67;;;12.01;66.34
77823;BME280;67013;49.730;17.292;2023-05-07T03:50:19;98523.83;;;11.99;66.25
77823;BME280;67013;49.730;17.292;2023-05-07T03:52:49;98528.58;;;11.99;66.42
77823;BME280;67013;49.730;17.292;2023-05-07T03:55:18;98532.98;;;11.98;66.47
77823;BME280;67013;49.730;17.292;2023-05-07T03:57:48;98529.60;;;11.99;66.32
77823;BME280;67013;49.730;17.292;2023-05-07T04:00:19;98533.29;;;12.01;66.27
77823;BME280;67013;49.730;17.292;2023-05-07T04:02:50;98532.75;;;12.01;65.88
77823;BME280;67013;49.730;17.292;2023-05-07T04:05:19;98533.21;;;12.00;65.82
77823;BME280;67013;49.730;17.292;2023-05-07T04:07:49;98533.48;;;12.03;65.71
77823;BME280;67013;49.730;17.292;2023-05-07T04:10:18;98535.83;;;12.09;65.65
77823;BME280;67013;49.730;17.292;2023-05-07T04:12:48;98537.66;;;12.19;65.58
77823;BME280;67013;49.730;17.292;2023-05-07T04:15:18;98544.45;;;12.37;65.51
77823;BME280;67013;49.730;17.292;2023-05-07T04:17:47;98548.63;;;12.59;64.73
77823;BME280;67013;49.730;17.292;2023-05-07T04:20:18;98552.16;;;12.85;64.40
77823;BME280;67013;49.730;17.292;2023-05-07T04:22:47;98551.95;;;13.07;63.91
77823;BME280;67013;49.730;17.292;2023-05-07T04:25:17;98547.10;;;13.27;63.73
77823;BME280;67013;49.730;17.292;2023-05-07T04:27:46;98547.81;;;13.63;63.15
77823;BME280;67013;49.730;17.292;2023-05-07T04:30:17;98547.77;;;14.03;62.41
77823;BME280;67013;49.730;17.292;2023-05-07T04:32:46;98550.36;;;14.40;61.58
77823;BME280;67013;49.730;17.292;2023-05-07T04:35:16;98556.85;;;14.62;60.90
77823;BME280;67013;49.730;17.292;2023-05-07T04:37:45;98561.17;;;14.83;59.90
77823;BME280;67013;49.730;17.292;2023-05-07T04:40:16;98567.54;;;15.04;59.28
77823;BME280;67013;49.730;17.292;2023-05-07T04:42:45;98567.52;;;15.24;58.51
77823;BME280;67013;49.730;17.292;2023-05-07T04:45:14;98565.23;;;15.39;57.79
77823;BME280;67013;49.730;17.292;2023-05-07T04:47:44;98575.18;;;15.51;57.51
77823;BME280;67013;49.730;17.292;2023-05-07T04:50:13;98577.55;;;15.61;57.34
77823;BME280;67013;49.730;17.292;2023-05-07T04:52:43;98579.34;;;15.68;57.05
77823;BME280;67013;49.730;17.292;2023-05-07T04:55:13;98578.32;;;15.72;56.78
77823;BME280;67013;49.730;17.292;2023-05-07T04:57:43;98585.14;;;15.77;56.52
77823;BME280;67013;49.730;17.292;2023-05-07T05:00:14;98580.27;;;15.87;56.17
77823;BME280;67013;49.730;17.292;2023-05-07T05:02:44;98571.77;;;15.91;55.77
77823;BME280;67013;49.730;17.292;2023-05-07T05:05:14;98570.49;;;16.03;55.39
77823;BME280;67013;49.730;17.292;2023-05-07T05:07:43;98572.93;;;16.20;54.87
77823;BME280;67013;49.730;17.292;2023-05-07T05:10:13;98578.30;;;16.40;54.03
77823;BME280;67013;49.730;17.292;2023-05-07T05:12:44;98578.77;;;16.61;53.41
77823;BME280;67013;49.730;17.292;2023-05-07T05:15:14;98579.98;;;16.80;53.14
77823;BME280;67013;49.730;17.292;2023-05-07T05:17:43;98584.27;;;16.91;52.63
77823;BME280;67013;49.730;17.292;2023-05-07T05:20:13;98584.27;;;16.90;52.32
77823;BME280;67013;49.730;17.292;2023-05-07T05:22:43;98587.25;;;16.84;52.12
77823;BME280;67013;49.730;17.292;2023-05-07T05:25:13;98591.39;;;16.78;52.00
77823;BME280;67013;49.730;17.292;2023-05-07T05:27:42;98591.63;;;16.66;51.81
77823;BME280;67013;49.730;17.292;2023-05-07T05:30:13;98592.54;;;16.53;51.78
77823;BME280;67013;49.730;17.292;2023-05-07T05:32:43;98597.27;;;16.40;51.98
77823;BME280;67013;49.730;17.292;2023-05-07T05:35:12;98594.63;;;16.29;51.84
77823;BME280;67013;49.730;17.292;2023-05-07T05:37:42;98601.12;;;16.15;52.02
77823;BME280;67013;49.730;17.292;2023-05-07T05:40:12;98608.23;;;16.04;52.13
77823;BME280;67013;49.730;17.292;2023-05-07T05:42:42;98610.89;;;15.97;52.36
77823;BME280;67013;49.730;17.292;2023-05-07T05:45:12;98613.73;;;15.95;52.43
77823;BME280;67013;49.730;17.292;2023-05-07T05:47:42;98614.98;;;15.96;52.22
77823;BME280;67013;49.730;17.292;2023-05-07T05:50:12;98611.11;;;16.04;51.92
77823;BME280;67013;49.730;17.292;2023-05-07T05:52:41;98611.77;;;16.20;51.72
77823;BME280;67013;49.730;17.292;2023-05-07T05:55:11;98613.86;;;16.37;51.44
77823;BME280;67013;49.730;17.292;2023-05-07T05:57:40;98614.12;;;16.47;51.00
77823;BME280;67013;49.730;17.292;2023-05-07T06:00:12;98614.03;;;16.63;51.05
77823;BME280;67013;49.730;17.292;2023-05-07T06:02:42;98615.19;;;16.82;50.50
77823;BME280;67013;49.730;17.292;2023-05-07T06:05:11;98614.69;;;16.95;49.74
77823;BME280;67013;49.730;17.292;2023-05-07T06:07:41;98615.36;;;16.98;49.19
77823;BME280;67013;49.730;17.292;2023-05-07T06:10:11;98617.30;;;16.99;48.80
77823;BME280;67013;49.730;17.292;2023-05-07T06:12:40;98622.20;;;17.12;48.94
77823;BME280;67013;49.730;17.292;2023-05-07T06:15:11;98623.42;;;17.18;48.87
77823;BME280;67013;49.730;17.292;2023-05-07T06:17:41;98624.29;;;17.18;48.66
77823;BME280;67013;49.730;17.292;2023-05-07T06:20:11;98629.85;;;17.13;48.67
77823;BME280;67013;49.730;17.292;2023-05-07T06:22:40;98631.14;;;17.09;48.82
77823;BME280;67013;49.730;17.292;2023-05-07T06:25:10;98630.98;;;17.07;48.78
77823;BME280;67013;49.730;17.292;2023-05-07T06:27:40;98640.96;;;17.00;48.24
77823;BME280;67013;49.730;17.292;2023-05-07T06:30:10;98645.36;;;16.85;48.07
77823;BME280;67013;49.730;17.292;2023-05-07T06:32:41;98643.16;;;16.71;48.31
77823;BME280;67013;49.730;17.292;2023-05-07T06:35:11;98641.39;;;16.61;48.34
77823;BME280;67013;49.730;17.292;2023-05-07T06:37:42;98642.31;;;16.59;48.77
77823;BME280;67013;49.730;17.292;2023-05-07T06:40:12;98646.08;;;16.64;48.76
77823;BME280;67013;49.730;17.292;2023-05-07T06:42:42;98644.13;;;16.66;48.67
77823;BME280;67013;49.730;17.292;2023-05-07T06:45:12;98646.01;;;16.74;48.56
77823;BME280;67013;49.730;17.292;2023-05-07T06:47:42;98643.99;;;16.86;47.75
77823;BME280;67013;49.730;17.292;2023-05-07T06:50:11;98644.04;;;17.00;47.39
77823;BME280;67013;49.730;17.292;2023-05-07T06:52:41;98645.97;;;17.44;46.94
77823;BME280;67013;49.730;17.292;2023-05-07T06:55:11;98646.12;;;17.93;45.89
77823;BME280;67013;49.730;17.292;2023-05-07T06:57:40;98646.27;;;18.49;44.47
77823;BME280;67013;49.730;17.292;2023-05-07T07:00:12;98648.23;;;18.91;43.61
77823;BME280;67013;49.730;17.292;2023-05-07T07:02:41;98651.04;;;19.15;42.51
77823;BME280;67013;49.730;17.292;2023-05-07T07:05:11;98651.19;;;19.25;42.19
77823;BME280;67013;49.730;17.292;2023-05-07T07:07:41;98657.98;;;19.17;42.14
77823;BME280;67013;49.730;17.292;2023-05-07T07:10:11;98658.21;;;19.01;41.76
77823;BME280;67013;49.730;17.292;2023-05-07T07:12:40;98662.14;;;18.75;42.03
77823;BME280;67013;49.730;17.292;2023-05-07T07:15:11;98663.27;;;18.49;42.63
77823;BME280;67013;49.730;17.292;2023-05-07T07:17:40;98658.16;;;18.20;43.01
77823;BME280;67013;49.730;17.292;2023-05-07T07:20:11;98662.75;;;17.97;43.32
77823;BME280;67013;49.730;17.292;2023-05-07T07:22:41;98664.16;;;17.73;44.02
77823;BME280;67013;49.730;17.292;2023-05-07T07:25:11;98670.36;;;17.50;44.33
77823;BME280;67013;49.730;17.292;2023-05-07T07:27:41;98671.52;;;17.16;44.56
77823;BME280;67013;49.730;17.292;2023-05-07T07:30:11;98675.61;;;16.84;45.62
77823;BME280;67013;49.730;17.292;2023-05-07T07:32:40;98672.91;;;16.61;46.19
77823;BME280;67013;49.730;17.292;2023-05-07T07:35:11;98682.98;;;16.37;46.72
77823;BME280;67013;49.730;17.292;2023-05-07T07:37:41;98687.67;;;16.12;47.33
77823;BME280;67013;49.730;17.292;2023-05-07T07:40:12;98693.35;;;15.87;48.00
77823;BME280;67013;49.730;17.292;2023-05-07T07:42:42;98689.06;;;15.67;48.50
77823;BME280;67013;49.730;17.292;2023-05-07T07:45:12;98691.13;;;15.49;48.89
77823;BME280;67013;49.730;17.292;2023-05-07T07:47:41;98692.46;;;15.29;49.21
77823;BME280;67013;49.730;17.292;2023-05-07T07:50:12;98694.27;;;15.13;49.79
77823;BME280;67013;49.730;17.292;2023-05-07T07:52:41;98700.77;;;14.98;50.10
77823;BME280;67013;49.730;17.292;2023-05-07T07:55:11;98699.14;;;14.87;50.26
77823;BME280;67013;49.730;17.292;2023-05-07T07:57:41;98706.45;;;14.73;50.67
77823;BME280;67013;49.730;17.292;2023-05-07T08:00:13;98712.05;;;14.63;51.00
77823;BME280;67013;49.730;17.292;2023-05-07T08:02:43;98714.00;;;14.60;51.45
77823;BME280;67013;49.730;17.292;2023-05-07T08:05:12;98714.58;;;14.60;51.63
77823;BME280;67013;49.730;17.292;2023-05-07T08:07:43;98718.10;;;14.53;51.84
77823;BME280;67013;49.730;17.292;2023-05-07T08:10:13;98724.08;;;14.43;52.07
77823;BME280;67013;49.730;17.292;2023-05-07T08:12:49;98726.51;;;14.32;52.35
77823;BME280;67013;49.730;17.292;2023-05-07T08:15:19;98732.19;;;14.18;52.64
77823;BME280;67013;49.730;17.292;2023-05-07T08:17:48;98732.77;;;14.00;53.07
77823;BME280;67013;49.730;17.292;2023-05-07T08:20:18;98731.08;;;13.95;53.48
77823;BME280;67013;49.730;17.292;2023-05-07T08:22:47;98734.35;;;13.92;53.64
77823;BME280;67013;49.730;17.292;2023-05-07T08:25:17;98731.48;;;13.91;53.94
77823;BME280;67013;49.730;17.292;2023-05-07T08:27:46;98728.80;;;13.89;53.87
77823;BME280;67013;49.730;17.292;2023-05-07T08:30:16;98728.70;;;13.79;53.88
77823;BME280;67013;49.730;17.292;2023-05-07T08:32:46;98731.00;;;13.66;54.23
77823;BME280;67013;49.730;17.292;2023-05-07T08:35:15;98733.21;;;13.61;54.59
77823;BME280;67013;49.730;17.292;2023-05-07T08:37:45;98730.56;;;13.59;54.53
77823;BME280;67013;49.730;17.292;2023-05-07T08:40:14;98730.11;;;13.62;54.50
77823;BME280;67013;49.730;17.292;2023-05-07T08:42:44;98733.35;;;13.61;53.97
77823;BME280;67013;49.730;17.292;2023-05-07T08:45:15;98747.99;;;13.49;53.77
77823;BME280;67013;49.730;17.292;2023-05-07T08:47:46;98747.83;;;13.39;54.34
77823;BME280;67013;49.730;17.292;2023-05-07T08:50:16;98746.75;;;13.35;54.30
77823;BME280;67013;49.730;17.292;2023-05-07T08:52:47;98745.40;;;13.41;54.61
77823;BME280;67013;49.730;17.292;2023-05-07T08:55:17;98751.77;;;13.47;53.53
77823;BME280;67013;49.730;17.292;2023-05-07T08:57:47;98757.48;;;13.46;53.45
77823;BME280;67013;49.730;17.292;2023-05-07T09:00:17;98755.45;;;13.40;53.77
77823;BME280;67013;49.730;17.292;2023-05-07T09:02:47;98754.79;;;13.39;54.15
77823;BME280;67013;49.730;17.292;2023-05-07T09:05:17;98756.20;;;13.44;54.46
77823;BME280;67013;49.730;17.292;2023-05-07T09:07:46;98758.40;;;13.42;54.31
77823;BME280;67013;49.730;17.292;2023-05-07T09:10:17;98757.05;;;13.39;54.64
77823;BME280;67013;49.730;17.292;2023-05-07T09:12:47;98761.63;;;13.41;54.77
77823;BME280;67013;49.730;17.292;2023-05-07T09:15:17;98764.13;;;13.46;55.14
77823;BME280;67013;49.730;17.292;2023-05-07T09:17:46;98761.40;;;13.49;54.80
77823;BME280;67013;49.730;17.292;2023-05-07T09:20:17;98773.85;;;13.53;54.90
77823;BME280;67013;49.730;17.292;2023-05-07T09:22:46;98777.00;;;13.55;54.75
77823;BME280;67013;49.730;17.292;2023-05-07T09:25:29;98776.73;;;13.54;54.61
77823;BME280;67013;49.730;17.292;2023-05-07T09:27:59;98777.19;;;13.53;54.43
77823;BME280;67013;49.730;17.292;2023-05-07T09:30:30;98773.44;;;13.49;54.44
77823;BME280;67013;49.730;17.292;2023-05-07T09:32:59;98776.56;;;13.47;54.69
77823;BME280;67013;49.730;17.292;2023-05-07T09:35:29;98778.25;;;13.50;54.57
77823;BME280;67013;49.730;17.292;2023-05-07T09:38:00;98777.60;;;13.52;53.65
77823;BME280;67013;49.730;17.292;2023-05-07T09:40:31;98778.26;;;13.44;53.83
77823;BME280;67013;49.730;17.292;2023-05-07T09:43:11;98781.77;;;13.32;53.81
77823;BME280;67013;49.730;17.292;2023-05-07T09:45:42;98782.02;;;13.20;54.26
77823;BME280;67013;49.730;17.292;2023-05-07T09:48:12;98786.23;;;13.15;54.19
77823;BME280;67013;49.730;17.292;2023-05-07T09:50:51;98788.77;;;13.06;54.15
77823;BME280;67013;49.730;17.292;2023-05-07T09:53:21;98790.38;;;13.04;54.67
77823;BME280;67013;49.730;17.292;2023-05-07T09:55:52;98800.91;;;13.01;54.68
77823;BME280;67013;49.730;17.292;2023-05-07T09:58:22;98799.39;;;12.93;54.94
77823;BME280;67013;49.730;17.292;2023-05-07T10:00:53;98805.61;;;12.87;55.49
77823;BME280;67013;49.730;17.292;2023-05-07T10:03:25;98803.73;;;12.87;55.91
77823;BME280;67013;49.730;17.292;2023-05-07T10:05:59;98804.35;;;12.90;56.04
77823;BME280;67013;49.730;17.292;2023-05-07T10:08:29;98805.33;;;12.95;55.42
77823;BME280;67013;49.730;17.292;2023-05-07T10:11:00;98798.11;;;12.94;55.52
77823;BME280;67013;49.730;17.292;2023-05-07T10:13:30;98804.83;;;12.97;55.51
77823;BME280;67013;49.730;17.292;2023-05-07T10:16:00;98807.26;;;13.02;55.54
77823;BME280;67013;49.730;17.292;2023-05-07T10:18:31;98808.00;;;13.04;55.62
77823;BME280;67013;49.730;17.292;2023-05-07T10:21:04;98802.83;;;13.15;55.82
77823;BME280;67013;49.730;17.292;2023-05-07T10:23:36;98809.01;;;13.32;55.66
77823;BME280;67013;49.730;17.292;2023-05-07T10:26:06;98809.48;;;13.47;54.87
77823;BME280;67013;49.730;17.292;2023-05-07T10:28:41;98813.34;;;13.48;53.79
77823;BME280;67013;49.730;17.292;2023-05-07T10:34:14;98817.70;;;13.50;54.09
77823;BME280;67013;49.730;17.292;2023-05-07T10:36:46;98821.91;;;13.55;53.61
77823;BME280;67013;49.730;17.292;2023-05-07T10:39:16;98814.80;;;13.52;53.26
77823;BME280;67013;49.730;17.292;2023-05-07T10:41:45;98817.28;;;13.47;53.37
77823;BME280;67013;49.730;17.292;2023-05-07T10:44:26;98819.30;;;13.48;53.31
77823;BME280;67013;49.730;17.292;2023-05-07T10:47:10;98824.56;;;13.57;53.20
77823;BME280;67013;49.730;17.292;2023-05-07T10:53:23;98830.88;;;13.59;53.32
77823;BME280;67013;49.730;17.292;2023-05-07T11:02:10;98839.86;;;13.17;54.13
77823;BME280;67013;49.730;17.292;2023-05-07T11:04:42;98841.66;;;13.25;53.53
77823;BME280;67013;49.730;17.292;2023-05-07T11:07:31;98834.33;;;13.43;52.90
77823;BME280;67013;49.730;17.292;2023-05-07T11:10:02;98833.26;;;13.70;52.40
77823;BME280;67013;49.730;17.292;2023-05-07T11:12:50;98835.80;;;13.98;52.18
77823;BME280;67013;49.730;17.292;2023-05-07T11:15:43;98839.73;;;14.28;51.72
77823;BME280;67013;49.730;17.292;2023-05-07T11:18:14;98842.75;;;14.44;50.38
77823;BME280;67013;49.730;17.292;2023-05-07T11:20:56;98844.61;;;14.50;50.72
77823;BME280;67013;49.730;17.292;2023-05-07T11:23:56;98842.79;;;14.53;50.48
77823;BME280;67013;49.730;17.292;2023-05-07T11:26:31;98835.58;;;14.35;50.38
77823;BME280;67013;49.730;17.292;2023-05-07T11:29:13;98838.21;;;14.20;50.47
77823;BME280;67013;49.730;17.292;2023-05-07T11:31:43;98846.33;;;13.95;51.03
77823;BME280;67013;49.730;17.292;2023-05-07T11:34:14;98849.89;;;13.77;51.86
77823;BME280;67013;49.730;17.292;2023-05-07T11:36:44;98854.45;;;13.72;52.33
77823;BME280;67013;49.730;17.292;2023-05-07T11:39:28;98855.65;;;13.63;52.16
77823;BME280;67013;49.730;17.292;2023-05-07T11:41:59;98869.46;;;13.52;53.01
77823;BME280;67013;49.730;17.292;2023-05-07T11:44:43;98870.59;;;13.51;53.30
77823;BME280;67013;49.730;17.292;2023-05-07T11:47:20;98873.55;;;13.49;53.62
77823;BME280;67013;49.730;17.292;2023-05-07T11:49:51;98874.02;;;13.54;53.50
77823;BME280;67013;49.730;17.292;2023-05-07T11:52:23;98879.02;;;13.51;52.94
77823;BME280;67013;49.730;17.292;2023-05-07T11:54:53;98875.27;;;13.45;52.97
77823;BME280;67013;49.730;17.292;2023-05-07T11:57:24;98872.02;;;13.37;53.10
77823;BME280;67013;49.730;17.292;2023-05-07T11:59:55;98879.32;;;13.31;53.32
77823;BME280;67013;49.730;17.292;2023-05-07T12:02:26;98893.33;;;13.30;52.94
77823;BME280;67013;49.730;17.292;2023-05-07T12:04:56;98897.52;;;13.39;53.35
77823;BME280;67013;49.730;17.292;2023-05-07T12:07:25;98903.98;;;13.51;53.04
77823;BME280;67013;49.730;17.292;2023-05-07T12:09:55;98911.67;;;13.53;53.16
77823;BME280;67013;49.730;17.292;2023-05-07T12:12:24;98906.60;;;13.55;52.84
77823;BME280;67013;49.730;17.292;2023-05-07T12:14:55;98910.13;;;13.57;52.75
77823;BME280;67013;49.730;17.292;2023-05-07T12:17:24;98921.25;;;13.54;52.41
77823;BME280;67013;49.730;17.292;2023-05-07T12:19:54;98925.50;;;13.44;52.42
77823;BME280;67013;49.730;17.292;2023-05-07T12:22:23;98935.12;;;13.34;52.13
77823;BME280;67013;49.730;17.292;2023-05-07T12:24:58;98940.88;;;13.34;53.16
77823;BME280;67013;49.730;17.292;2023-05-07T12:27:28;98946.55;;;13.40;52.80
77823;BME280;67013;49.730;17.292;2023-05-07T12:29:59;98943.18;;;13.36;52.80
77823;BME280;67013;49.730;17.292;2023-05-07T12:32:28;98949.29;;;13.27;52.72
77823;BME280;67013;49.730;17.292;2023-05-07T12:34:58;98953.27;;;13.09;52.46
77823;BME280;67013;49.730;17.292;2023-05-07T12:37:27;98960.72;;;12.93;53.09
77823;BME280;67013;49.730;17.292;2023-05-07T12:40:07;98958.03;;;12.80;52.93
77823;BME280;67013;49.730;17.292;2023-05-07T12:42:39;98962.00;;;12.68;53.53
77823;BME280;67013;49.730;17.292;2023-05-07T12:45:12;98962.30;;;12.54;53.82
77823;BME280;67013;49.730;17.292;2023-05-07T12:47:44;98963.30;;;12.43;54.14
77823;BME280;67013;49.730;17.292;2023-05-07T12:50:14;98960.45;;;12.29;54.38
77823;BME280;67013;49.730;17.292;2023-05-07T12:52:45;98959.29;;;12.18;54.61
77823;BME280;67013;49.730;17.292;2023-05-07T12:55:15;98954.60;;;12.11;55.10
77823;BME280;67013;49.730;17.292;2023-05-07T12:57:49;98957.77;;;12.00;55.42
77823;BME280;67013;49.730;17.292;2023-05-07T13:00:19;98954.73;;;11.91;55.74
77823;BME280;67013;49.730;17.292;2023-05-07T13:03:01;98956.65;;;11.86;55.79
77823;BME280;67013;49.730;17.292;2023-05-07T13:05:30;98962.36;;;11.87;55.65
77823;BME280;67013;49.730;17.292;2023-05-07T13:08:00;98965.25;;;11.90;55.81
77823;BME280;67013;49.730;17.292;2023-05-07T13:10:30;98962.29;;;11.90;55.41
77823;BME280;67013;49.730;17.292;2023-05-07T13:13:00;98959.23;;;11.89;55.38
77823;BME280;67013;49.730;17.292;2023-05-07T13:15:30;98960.30;;;11.84;55.22
77823;BME280;67013;49.730;17.292;2023-05-07T13:17:59;98961.92;;;11.80;55.41
77823;BME280;67013;49.730;17.292;2023-05-07T13:20:29;98961.45;;;11.74;55.26